createdAt,value
2018-08-20T00:00:01.495Z,934.07
2018-08-20T00:01:01.469Z,934.10
2018-08-20T00:02:01.428Z,934.11
2018-08-20T00:03:01.428Z,934.09
2018-08-20T00:04:01.380Z,934.11
2018-08-20T00:05:01.431Z,934.12
2018-08-20T00:06:01.363Z,934.11
2018-08-20T00:07:01.335Z,934.11
2018-08-20T00:08:01.321Z,934.15
2018-08-20T00:09:01.286Z,934.11
2018-08-20T00:10:01.272Z,934.16
2018-08-20T00:11:01.251Z,934.21
2018-08-20T00:12:01.207Z,934.21
2018-08-20T00:13:01.203Z,934.23
2018-08-20T00:14:01.189Z,934.22
2018-08-20T00:15:01.157Z,934.22
2018-08-20T00:16:01.136Z,934.26
2018-08-20T00:17:01.118Z,934.25
2018-08-20T00:18:01.095Z,934.24
2018-08-20T00:19:01.074Z,934.26
2018-08-20T00:20:01.044Z,934.27
2018-08-20T00:21:01.022Z,934.28
2018-08-20T00:22:01.004Z,934.34
2018-08-20T00:23:00.981Z,934.30
2018-08-20T00:24:00.962Z,934.26
2018-08-20T00:25:00.938Z,934.28
2018-08-20T00:26:00.917Z,934.33
2018-08-20T00:27:00.903Z,934.36
2018-08-20T00:28:00.873Z,934.35
2018-08-20T00:29:00.848Z,934.35
2018-08-20T00:30:00.828Z,934.38
2018-08-20T00:31:00.809Z,934.41
2018-08-20T00:32:00.790Z,934.46
2018-08-20T00:33:00.743Z,934.47
2018-08-20T00:34:00.739Z,934.46
2018-08-20T00:35:00.726Z,934.45
2018-08-20T00:36:00.703Z,934.47
2018-08-20T00:37:00.651Z,934.44
2018-08-20T00:38:00.633Z,934.49
2018-08-20T00:39:00.625Z,934.51
2018-08-20T00:40:00.608Z,934.51
2018-08-20T00:41:00.580Z,934.55
2018-08-20T00:42:00.562Z,934.57
2018-08-20T00:43:00.543Z,934.57
2018-08-20T00:44:00.525Z,934.59
2018-08-20T00:45:00.478Z,934.58
2018-08-20T00:46:00.473Z,934.56
2018-08-20T00:47:00.457Z,934.61
2018-08-20T00:48:00.411Z,934.59
2018-08-20T00:49:00.410Z,934.59
2018-08-20T00:50:00.386Z,934.58
2018-08-20T00:51:00.369Z,934.56
2018-08-20T00:52:00.346Z,934.55
2018-08-20T00:53:00.319Z,934.58
2018-08-20T00:54:00.302Z,934.63
2018-08-20T00:55:00.323Z,934.57
2018-08-20T00:56:00.252Z,934.57
2018-08-20T00:57:00.226Z,934.55
2018-08-20T00:58:00.207Z,934.59
2018-08-20T00:59:00.172Z,934.59
2018-08-20T01:00:00.166Z,934.56
2018-08-20T01:01:00.121Z,934.55
2018-08-20T01:02:00.115Z,934.59
2018-08-20T01:03:00.097Z,934.58
2018-08-20T01:04:00.071Z,934.61
2018-08-20T01:05:00.056Z,934.58
2018-08-20T01:06:00.032Z,934.57
2018-08-20T01:07:00.014Z,934.56
2018-08-20T01:07:59.986Z,934.56
2018-08-20T01:08:59.962Z,934.62
2018-08-20T01:09:59.942Z,934.60
2018-08-20T01:10:59.923Z,934.52
2018-08-20T01:11:59.897Z,934.54
2018-08-20T01:12:59.877Z,934.50
2018-08-20T01:13:59.849Z,934.52
2018-08-20T01:14:59.833Z,934.45
2018-08-20T01:15:59.813Z,934.47
2018-08-20T01:16:59.785Z,934.44
2018-08-20T01:17:59.773Z,934.47
2018-08-20T01:18:59.747Z,934.42
2018-08-20T01:19:59.702Z,934.41
2018-08-20T01:20:59.705Z,934.39
2018-08-20T01:21:59.679Z,934.43
2018-08-20T01:22:59.652Z,934.46
2018-08-20T01:23:59.635Z,934.46
2018-08-20T01:24:59.626Z,934.45
2018-08-20T01:25:59.589Z,934.52
2018-08-20T01:26:59.562Z,934.51
2018-08-20T01:27:59.544Z,934.56
2018-08-20T01:28:59.526Z,934.51
2018-08-20T01:29:59.482Z,934.52
2018-08-20T01:30:59.475Z,934.55
2018-08-20T01:31:59.447Z,934.56
2018-08-20T01:32:59.430Z,934.55
2018-08-20T01:33:59.404Z,934.53
2018-08-20T01:34:59.391Z,934.54
2018-08-20T01:35:59.360Z,934.56
2018-08-20T01:36:59.344Z,934.55
2018-08-20T01:37:59.323Z,934.51
2018-08-20T01:38:59.300Z,934.56
2018-08-20T01:39:59.278Z,934.57
2018-08-20T01:40:59.253Z,934.58
2018-08-20T01:41:59.235Z,934.52
2018-08-20T01:42:59.196Z,934.57
2018-08-20T01:43:59.181Z,934.58
2018-08-20T01:44:59.168Z,934.50
2018-08-20T01:45:59.140Z,934.53
2018-08-20T01:46:59.099Z,934.57
2018-08-20T01:47:59.096Z,934.57
2018-08-20T01:48:59.075Z,934.58
2018-08-20T01:49:59.038Z,934.60
2018-08-20T01:50:59.030Z,934.61
2018-08-20T01:51:58.990Z,934.56
2018-08-20T01:52:58.988Z,934.59
2018-08-20T01:53:58.967Z,934.55
2018-08-20T01:54:58.923Z,934.60
2018-08-20T01:55:58.917Z,934.60
2018-08-20T01:56:58.891Z,934.59
2018-08-20T01:57:58.872Z,934.60
2018-08-20T01:58:58.852Z,934.63
2018-08-20T01:59:58.823Z,934.65
2018-08-20T02:00:58.809Z,934.62
2018-08-20T02:01:58.782Z,934.68
2018-08-20T02:02:58.742Z,934.71
2018-08-20T02:03:58.738Z,934.70
2018-08-20T02:04:58.718Z,934.71
2018-08-20T02:05:58.703Z,934.67
2018-08-20T02:06:58.668Z,934.72
2018-08-20T02:07:58.651Z,934.71
2018-08-20T02:08:58.629Z,934.66
2018-08-20T02:09:58.603Z,934.74
2018-08-20T02:10:58.585Z,934.72
2018-08-20T02:11:58.560Z,934.73
2018-08-20T02:12:58.518Z,934.72
2018-08-20T02:13:58.517Z,934.72
2018-08-20T02:14:58.495Z,934.70
2018-08-20T02:15:58.468Z,934.71
2018-08-20T02:16:58.432Z,934.78
2018-08-20T02:17:58.428Z,934.76
2018-08-20T02:18:58.386Z,934.72
2018-08-20T02:19:58.383Z,934.75
2018-08-20T02:20:58.361Z,934.81
2018-08-20T02:21:58.335Z,934.80
2018-08-20T02:22:58.314Z,934.80
2018-08-20T02:23:58.288Z,934.83
2018-08-20T02:24:58.296Z,934.84
2018-08-20T02:25:58.248Z,934.83
2018-08-20T02:26:58.232Z,934.81
2018-08-20T02:27:58.185Z,934.81
2018-08-20T02:28:58.180Z,934.78
2018-08-20T02:29:58.135Z,934.76
2018-08-20T02:30:58.134Z,934.81
2018-08-20T02:31:58.107Z,934.82
2018-08-20T02:32:58.094Z,934.77
2018-08-20T02:33:58.049Z,934.65
2018-08-20T02:34:58.022Z,934.71
2018-08-20T02:35:58.019Z,934.67
2018-08-20T02:36:58.009Z,934.69
2018-08-20T02:37:57.980Z,934.66
2018-08-20T02:38:57.939Z,934.62
2018-08-20T02:39:57.931Z,934.66
2018-08-20T02:40:57.893Z,934.63
2018-08-20T02:41:57.886Z,934.63
2018-08-20T02:42:57.846Z,934.63
2018-08-20T02:43:57.840Z,934.65
2018-08-20T02:44:57.818Z,934.62
2018-08-20T02:45:57.803Z,934.61
2018-08-20T02:46:57.777Z,934.63
2018-08-20T02:47:57.754Z,934.60
2018-08-20T02:48:57.736Z,934.60
2018-08-20T02:49:57.706Z,934.58
2018-08-20T02:50:57.681Z,934.58
2018-08-20T02:51:57.661Z,934.60
2018-08-20T02:52:57.642Z,934.62
2018-08-20T02:53:57.610Z,934.59
2018-08-20T02:54:57.591Z,934.60
2018-08-20T02:55:57.571Z,934.57
2018-08-20T02:56:57.547Z,934.53
2018-08-20T02:57:57.526Z,934.56
2018-08-20T02:58:57.502Z,934.53
2018-08-20T02:59:57.476Z,934.53
2018-08-20T03:00:57.453Z,934.48
2018-08-20T03:01:57.428Z,934.49
2018-08-20T03:02:57.390Z,934.52
2018-08-20T03:03:57.386Z,934.51
2018-08-20T03:04:57.364Z,934.48
2018-08-20T03:05:57.342Z,934.48
2018-08-20T03:06:57.327Z,934.50
2018-08-20T03:07:57.297Z,934.46
2018-08-20T03:08:57.270Z,934.53
2018-08-20T03:09:57.358Z,934.45
2018-08-20T03:10:57.225Z,934.40
2018-08-20T03:11:57.205Z,934.48
2018-08-20T03:12:57.180Z,934.50
2018-08-20T03:13:57.163Z,934.53
2018-08-20T03:14:57.126Z,934.49
2018-08-20T03:15:57.114Z,934.48
2018-08-20T03:16:57.092Z,934.50
2018-08-20T03:17:57.050Z,934.46
2018-08-20T03:18:57.028Z,934.46
2018-08-20T03:19:57.021Z,934.51
2018-08-20T03:20:57.000Z,934.46
2018-08-20T03:21:56.964Z,934.47
2018-08-20T03:22:56.962Z,934.52
2018-08-20T03:23:56.912Z,934.51
2018-08-20T03:24:56.889Z,934.52
2018-08-20T03:25:56.889Z,934.42
2018-08-20T03:26:56.868Z,934.44
2018-08-20T03:27:56.843Z,934.45
2018-08-20T03:28:56.819Z,934.49
2018-08-20T03:29:56.784Z,934.42
2018-08-20T03:30:56.789Z,934.40
2018-08-20T03:31:56.732Z,934.39
2018-08-20T03:32:56.740Z,934.35
2018-08-20T03:33:56.712Z,934.36
2018-08-20T03:34:56.684Z,934.31
2018-08-20T03:35:56.644Z,934.33
2018-08-20T03:36:56.643Z,934.33
2018-08-20T03:37:56.619Z,934.29
2018-08-20T03:38:56.603Z,934.25
2018-08-20T03:39:56.573Z,934.34
2018-08-20T03:40:56.546Z,934.26
2018-08-20T03:41:56.534Z,934.35
2018-08-20T03:42:56.488Z,934.34
2018-08-20T03:43:56.481Z,934.35
2018-08-20T03:44:56.468Z,934.38
2018-08-20T03:45:56.438Z,934.35
2018-08-20T03:46:56.413Z,934.36
2018-08-20T03:47:56.391Z,934.36
2018-08-20T03:48:56.369Z,934.33
2018-08-20T03:49:56.344Z,934.35
2018-08-20T03:50:56.329Z,934.34
2018-08-20T03:51:56.304Z,934.41
2018-08-20T03:52:56.263Z,934.38
2018-08-20T03:53:56.256Z,934.32
2018-08-20T03:54:56.216Z,934.31
2018-08-20T03:55:56.214Z,934.32
2018-08-20T03:56:56.189Z,934.35
2018-08-20T03:57:56.180Z,934.31
2018-08-20T03:58:56.142Z,934.25
2018-08-20T03:59:56.125Z,934.26
2018-08-20T04:00:56.096Z,934.23
2018-08-20T04:01:56.058Z,934.25
2018-08-20T04:02:56.052Z,934.18
2018-08-20T04:03:56.032Z,934.23
2018-08-20T04:04:56.068Z,934.21
2018-08-20T04:05:55.989Z,934.20
2018-08-20T04:06:55.965Z,934.18
2018-08-20T04:07:55.934Z,934.18
2018-08-20T04:08:55.921Z,934.16
2018-08-20T04:09:55.894Z,934.18
2018-08-20T04:10:55.879Z,934.10
2018-08-20T04:11:55.845Z,934.10
2018-08-20T04:12:55.822Z,934.09
2018-08-20T04:13:55.803Z,934.12
2018-08-20T04:14:55.761Z,934.07
2018-08-20T04:15:55.756Z,934.08
2018-08-20T04:16:55.739Z,934.04
2018-08-20T04:17:55.712Z,934.05
2018-08-20T04:18:55.696Z,933.99
2018-08-20T04:19:55.665Z,934.04
2018-08-20T04:20:55.621Z,933.92
2018-08-20T04:21:55.627Z,933.93
2018-08-20T04:22:55.607Z,933.89
2018-08-20T04:23:55.578Z,933.88
2018-08-20T04:24:55.556Z,933.90
2018-08-20T04:25:55.526Z,933.93
2018-08-20T04:26:55.507Z,933.91
2018-08-20T04:27:55.484Z,933.91
2018-08-20T04:28:55.465Z,933.92
2018-08-20T04:29:55.423Z,933.92
2018-08-20T04:30:55.402Z,933.92
2018-08-20T04:31:55.393Z,933.87
2018-08-20T04:32:55.374Z,933.88
2018-08-20T04:33:55.353Z,933.87
2018-08-20T04:34:55.326Z,933.88
2018-08-20T04:35:55.301Z,933.91
2018-08-20T04:36:55.287Z,933.86
2018-08-20T04:37:55.259Z,933.86
2018-08-20T04:38:55.224Z,933.88
2018-08-20T04:39:55.211Z,933.87
2018-08-20T04:40:55.188Z,933.82
2018-08-20T04:41:55.170Z,933.87
2018-08-20T04:42:55.146Z,933.84
2018-08-20T04:43:55.128Z,933.82
2018-08-20T04:44:55.100Z,933.82
2018-08-20T04:45:55.054Z,933.80
2018-08-20T04:46:55.052Z,933.85
2018-08-20T04:47:55.011Z,933.88
2018-08-20T04:48:55.007Z,933.90
2018-08-20T04:49:55.045Z,933.86
2018-08-20T04:50:55.193Z,933.82
2018-08-20T04:51:54.938Z,933.83
2018-08-20T04:52:54.911Z,933.84
2018-08-20T04:53:54.897Z,933.89
2018-08-20T04:54:54.876Z,933.77
2018-08-20T04:55:54.847Z,933.84
2018-08-20T04:56:54.823Z,933.82
2018-08-20T04:57:54.804Z,933.80
2018-08-20T04:58:54.774Z,933.82
2018-08-20T04:59:54.756Z,933.77
2018-08-20T05:00:54.731Z,933.73
2018-08-20T05:01:54.709Z,933.69
2018-08-20T05:02:54.692Z,933.67
2018-08-20T05:03:54.708Z,933.70
2018-08-20T05:04:54.645Z,933.76
2018-08-20T05:05:54.620Z,933.75
2018-08-20T05:06:54.596Z,933.77
2018-08-20T05:07:54.576Z,933.77
2018-08-20T05:08:54.558Z,933.72
2018-08-20T05:09:54.544Z,933.72
2018-08-20T05:10:54.506Z,933.77
2018-08-20T05:11:54.484Z,933.81
2018-08-20T05:12:54.442Z,933.85
2018-08-20T05:13:54.436Z,933.72
2018-08-20T05:14:54.416Z,933.80
2018-08-20T05:15:54.393Z,933.82
2018-08-20T05:16:54.351Z,933.83
2018-08-20T05:17:54.332Z,933.83
2018-08-20T05:18:54.460Z,933.79
2018-08-20T05:19:54.299Z,933.79
2018-08-20T05:20:54.258Z,933.80
2018-08-20T05:21:54.250Z,933.82
2018-08-20T05:22:54.236Z,933.77
2018-08-20T05:23:54.206Z,933.75
2018-08-20T05:24:54.186Z,933.81
2018-08-20T05:25:54.165Z,933.73
2018-08-20T05:26:54.123Z,933.65
2018-08-20T05:27:54.114Z,933.71
2018-08-20T05:28:54.099Z,933.68
2018-08-20T05:29:54.054Z,933.67
2018-08-20T05:30:54.038Z,933.61
2018-08-20T05:31:54.024Z,933.65
2018-08-20T05:32:54.005Z,933.65
2018-08-20T05:33:53.986Z,933.65
2018-08-20T05:34:53.957Z,933.64
2018-08-20T05:35:53.942Z,933.65
2018-08-20T05:36:53.906Z,933.68
2018-08-20T05:37:53.892Z,933.62
2018-08-20T05:38:53.867Z,933.66
2018-08-20T05:39:53.847Z,933.66
2018-08-20T05:40:53.822Z,933.60
2018-08-20T05:41:53.796Z,933.67
2018-08-20T05:42:53.772Z,933.62
2018-08-20T05:43:53.758Z,933.66
2018-08-20T05:44:53.806Z,933.72
2018-08-20T05:45:53.704Z,933.64
2018-08-20T05:46:53.684Z,933.65
2018-08-20T05:47:53.640Z,933.60
2018-08-20T05:48:53.639Z,933.53
2018-08-20T05:49:53.614Z,933.57
2018-08-20T05:50:53.589Z,933.50
2018-08-20T05:51:53.568Z,933.53
2018-08-20T05:52:53.546Z,933.46
2018-08-20T05:53:53.507Z,933.44
2018-08-20T05:54:53.495Z,933.40
2018-08-20T05:55:53.479Z,933.39
2018-08-20T05:56:53.453Z,933.32
2018-08-20T05:57:53.436Z,933.29
2018-08-20T05:58:53.408Z,933.37
2018-08-20T05:59:53.382Z,933.33
2018-08-20T06:00:53.364Z,933.36
2018-08-20T06:01:53.319Z,933.36
2018-08-20T06:02:53.296Z,933.31
2018-08-20T06:03:53.290Z,933.35
2018-08-20T06:04:53.268Z,933.24
2018-08-20T06:05:53.247Z,933.32
2018-08-20T06:06:53.229Z,933.30
2018-08-20T06:07:53.253Z,933.21
2018-08-20T06:08:53.178Z,933.26
2018-08-20T06:09:53.155Z,933.24
2018-08-20T06:10:53.124Z,933.22
2018-08-20T06:11:53.105Z,933.24
2018-08-20T06:12:53.084Z,933.25
2018-08-20T06:13:53.061Z,933.21
2018-08-20T06:14:53.022Z,933.23
2018-08-20T06:15:53.012Z,933.25
2018-08-20T06:16:52.984Z,933.24
2018-08-20T06:17:52.966Z,933.21
2018-08-20T06:18:52.939Z,933.28
2018-08-20T06:19:52.918Z,933.22
2018-08-20T06:20:52.905Z,933.17
2018-08-20T06:21:52.860Z,933.19
2018-08-20T06:22:52.859Z,933.16
2018-08-20T06:23:52.811Z,933.15
2018-08-20T06:24:52.823Z,933.16
2018-08-20T06:25:52.790Z,933.07
2018-08-20T06:26:52.761Z,933.06
2018-08-20T06:27:52.739Z,933.14
2018-08-20T06:28:52.712Z,933.13
2018-08-20T06:29:52.686Z,933.08
2018-08-20T06:30:52.665Z,933.11
2018-08-20T06:31:52.645Z,933.03
2018-08-20T06:32:52.617Z,933.10
2018-08-20T06:33:52.600Z,933.11
2018-08-20T06:34:52.562Z,933.14
2018-08-20T06:35:52.577Z,933.18
2018-08-20T06:36:52.525Z,933.09
2018-08-20T06:37:52.484Z,933.10
2018-08-20T06:38:52.463Z,933.11
2018-08-20T06:39:52.460Z,933.10
2018-08-20T06:40:52.441Z,933.08
2018-08-20T06:41:52.394Z,933.10
2018-08-20T06:42:52.389Z,933.06
2018-08-20T06:43:52.350Z,933.07
2018-08-20T06:44:52.322Z,933.12
2018-08-20T06:45:52.317Z,932.97
2018-08-20T06:46:52.292Z,933.09
2018-08-20T06:47:52.270Z,932.97
2018-08-20T06:48:52.250Z,933.06
2018-08-20T06:49:52.210Z,933.06
2018-08-20T06:50:52.186Z,933.07
2018-08-20T06:51:52.182Z,933.01
2018-08-20T06:52:52.154Z,932.97
2018-08-20T06:53:52.131Z,933.01
2018-08-20T06:54:52.112Z,933.06
2018-08-20T06:55:52.084Z,933.06
2018-08-20T06:56:52.056Z,933.04
2018-08-20T06:57:52.045Z,933.03
2018-08-20T06:58:52.017Z,933.05
2018-08-20T06:59:52.000Z,933.05
2018-08-20T07:00:51.976Z,933.01
2018-08-20T07:01:51.950Z,933.06
2018-08-20T07:02:51.923Z,933.12
2018-08-20T07:03:51.907Z,933.09
2018-08-20T07:04:51.877Z,933.19
2018-08-20T07:05:51.851Z,933.11
2018-08-20T07:06:51.832Z,933.20
2018-08-20T07:07:51.803Z,933.20
2018-08-20T07:08:51.782Z,933.19
2018-08-20T07:09:51.767Z,933.18
2018-08-20T07:10:51.717Z,933.17
2018-08-20T07:11:51.788Z,933.24
2018-08-20T07:12:51.688Z,933.21
2018-08-20T07:13:51.666Z,933.20
2018-08-20T07:14:51.644Z,933.24
2018-08-20T07:15:51.621Z,933.21
2018-08-20T07:16:51.598Z,933.24
2018-08-20T07:17:51.549Z,933.25
2018-08-20T07:18:51.549Z,933.29
2018-08-20T07:19:51.587Z,933.31
2018-08-20T07:20:51.509Z,933.31
2018-08-20T07:21:51.482Z,933.35
2018-08-20T07:22:51.570Z,933.35
2018-08-20T07:23:51.504Z,933.36
2018-08-20T07:24:51.387Z,933.39
2018-08-20T07:25:51.364Z,933.36
2018-08-20T07:26:51.348Z,933.35
2018-08-20T07:27:51.344Z,933.33
2018-08-20T07:28:51.310Z,933.32
2018-08-20T07:29:51.295Z,933.39
2018-08-20T07:30:51.266Z,933.36
2018-08-20T07:31:51.244Z,933.35
2018-08-20T07:32:51.221Z,933.34
2018-08-20T07:33:51.200Z,933.34
2018-08-20T07:34:51.180Z,933.34
2018-08-20T07:35:51.147Z,933.38
2018-08-20T07:36:51.106Z,933.30
2018-08-20T07:37:51.105Z,933.39
2018-08-20T07:38:51.082Z,933.42
2018-08-20T07:39:51.058Z,933.41
2018-08-20T07:40:51.034Z,933.34
2018-08-20T07:41:51.021Z,933.38
2018-08-20T07:42:50.969Z,933.42
2018-08-20T07:43:50.966Z,933.39
2018-08-20T07:44:50.927Z,933.40
2018-08-20T07:45:50.927Z,933.45
2018-08-20T07:46:50.900Z,933.40
2018-08-20T07:47:50.867Z,933.38
2018-08-20T07:48:50.831Z,933.44
2018-08-20T07:49:50.822Z,933.43
2018-08-20T07:50:50.810Z,933.41
2018-08-20T07:51:50.833Z,933.39
2018-08-20T07:52:50.758Z,933.43
2018-08-20T07:55:34.485Z,933.48
2018-08-20T07:56:34.415Z,933.50
2018-08-20T07:57:34.377Z,933.48
2018-08-20T07:58:34.366Z,933.53
2018-08-20T07:59:34.342Z,933.57
2018-08-20T08:00:34.322Z,933.50
2018-08-20T08:01:34.298Z,933.51
2018-08-20T08:02:34.277Z,933.52
2018-08-20T08:03:34.232Z,933.47
2018-08-20T08:04:34.230Z,933.53
2018-08-20T08:05:34.206Z,933.58
2018-08-20T08:06:34.183Z,933.58
2018-08-20T08:07:34.159Z,933.60
2018-08-20T08:08:34.168Z,933.60
2018-08-20T08:09:34.116Z,933.58
2018-08-20T08:10:34.087Z,933.63
2018-08-20T08:11:34.061Z,933.64
2018-08-20T08:12:34.043Z,933.61
2018-08-20T08:13:34.020Z,933.58
2018-08-20T08:14:33.990Z,933.59
2018-08-20T08:15:33.978Z,933.57
2018-08-20T08:16:33.944Z,933.57
2018-08-20T08:17:33.906Z,933.58
2018-08-20T08:18:33.899Z,933.61
2018-08-20T08:19:33.880Z,933.64
2018-08-20T08:20:33.861Z,933.67
2018-08-20T08:21:33.816Z,933.60
2018-08-20T08:22:33.809Z,933.63
2018-08-20T08:23:33.763Z,933.63
2018-08-20T08:24:33.750Z,933.58
2018-08-20T08:25:33.743Z,933.61
2018-08-20T08:26:33.789Z,933.61
2018-08-20T08:27:33.691Z,933.63
2018-08-20T08:28:33.671Z,933.64
2018-08-20T08:29:33.643Z,933.67
2018-08-20T08:30:33.624Z,933.65
2018-08-20T08:31:33.592Z,933.66
2018-08-20T08:32:33.551Z,933.71
2018-08-20T08:33:33.556Z,933.71
2018-08-20T08:34:33.509Z,933.71
2018-08-20T08:35:33.507Z,933.73
2018-08-20T08:36:33.486Z,933.73
2018-08-20T08:37:33.440Z,933.75
2018-08-20T08:38:33.436Z,933.77
2018-08-20T08:39:33.394Z,933.81
2018-08-20T08:40:33.389Z,933.82
2018-08-20T08:41:33.345Z,933.85
2018-08-20T08:42:33.336Z,933.85
2018-08-20T08:43:33.313Z,933.83
2018-08-20T08:44:33.290Z,933.86
2018-08-20T08:45:33.265Z,933.88
2018-08-20T08:46:33.228Z,933.91
2018-08-20T08:47:33.229Z,933.93
2018-08-20T08:48:33.185Z,933.97
2018-08-20T08:49:33.176Z,933.96
2018-08-20T08:50:33.149Z,933.99
2018-08-20T08:51:33.136Z,934.03
2018-08-20T08:52:33.106Z,934.01
2018-08-20T08:53:33.077Z,934.04
2018-08-20T08:54:33.054Z,934.09
2018-08-20T08:55:33.036Z,934.09
2018-08-20T08:56:33.016Z,934.08
2018-08-20T08:57:32.989Z,934.11
2018-08-20T08:58:32.942Z,934.10
2018-08-20T08:59:32.933Z,934.09
2018-08-20T09:00:32.981Z,934.10
2018-08-20T09:01:32.889Z,934.08
2018-08-20T09:02:32.846Z,934.07
2018-08-20T09:03:32.850Z,934.10
2018-08-20T09:04:32.817Z,934.16
2018-08-20T09:05:32.792Z,934.16
2018-08-20T09:06:32.755Z,934.13
2018-08-20T09:07:32.730Z,934.13
2018-08-20T09:08:32.728Z,934.13
2018-08-20T09:09:32.701Z,934.15
2018-08-20T09:10:32.676Z,934.13
2018-08-20T09:11:32.656Z,934.13
2018-08-20T09:12:32.629Z,934.10
2018-08-20T09:13:32.658Z,934.15
2018-08-20T09:14:32.586Z,934.17
2018-08-20T09:15:32.862Z,934.16
2018-08-20T09:16:32.538Z,934.18
2018-08-20T09:17:32.510Z,934.19
2018-08-20T09:18:32.487Z,934.24
2018-08-20T09:19:32.469Z,934.26
2018-08-20T09:20:32.465Z,934.25
2018-08-20T09:21:32.417Z,934.29
2018-08-20T09:22:32.372Z,934.27
2018-08-20T09:23:32.374Z,934.24
2018-08-20T09:24:32.343Z,934.26
2018-08-20T09:25:32.324Z,934.26
2018-08-20T09:26:32.303Z,934.31
2018-08-20T09:27:32.255Z,934.34
2018-08-20T09:28:32.235Z,934.35
2018-08-20T09:29:32.232Z,934.35
2018-08-20T09:30:32.199Z,934.39
2018-08-20T09:31:32.182Z,934.40
2018-08-20T09:32:32.154Z,934.36
2018-08-20T09:33:32.127Z,934.34
2018-08-20T09:34:32.106Z,934.38
2018-08-20T09:35:32.083Z,934.37
2018-08-20T09:36:32.059Z,934.32
2018-08-20T09:37:32.035Z,934.33
2018-08-20T09:38:32.012Z,934.40
2018-08-20T09:39:31.995Z,934.40
2018-08-20T09:40:31.971Z,934.44
2018-08-20T09:41:31.927Z,934.46
2018-08-20T09:42:31.918Z,934.40
2018-08-20T09:43:31.896Z,934.44
2018-08-20T09:44:31.871Z,934.43
2018-08-20T09:45:31.842Z,934.47
2018-08-20T09:46:31.826Z,934.46
2018-08-20T09:47:31.807Z,934.51
2018-08-20T09:48:31.776Z,934.52
2018-08-20T09:49:31.754Z,934.61
2018-08-20T09:50:31.730Z,934.59
2018-08-20T09:51:31.704Z,934.56
2018-08-20T09:52:31.656Z,934.59
2018-08-20T09:53:31.690Z,934.64
2018-08-20T09:54:31.630Z,934.64
2018-08-20T09:55:31.607Z,934.63
2018-08-20T09:56:31.586Z,934.61
2018-08-20T09:57:31.566Z,934.66
2018-08-20T09:58:31.540Z,934.69
2018-08-20T09:59:31.522Z,934.72
2018-08-20T10:00:31.491Z,934.76
2018-08-20T10:01:31.471Z,934.76
2018-08-20T10:02:31.451Z,934.76
2018-08-20T10:03:31.409Z,934.76
2018-08-20T10:04:31.407Z,934.79
2018-08-20T10:05:31.361Z,934.82
2018-08-20T10:06:31.329Z,934.84
2018-08-20T10:07:31.363Z,934.82
2018-08-20T10:08:31.321Z,934.85
2018-08-20T10:09:31.312Z,934.85
2018-08-20T10:10:31.266Z,934.89
2018-08-20T10:11:31.239Z,934.93
2018-08-20T10:12:31.233Z,934.92
2018-08-20T10:13:31.196Z,934.94
2018-08-20T10:14:31.174Z,934.97
2018-08-20T10:15:31.151Z,934.98
2018-08-20T10:16:31.134Z,934.98
2018-08-20T10:17:31.091Z,934.99
2018-08-20T10:18:31.118Z,935.03
2018-08-20T10:19:31.049Z,935.04
2018-08-20T10:20:31.041Z,935.05
2018-08-20T10:21:31.028Z,935.06
2018-08-20T10:22:31.006Z,935.07
2018-08-20T10:23:30.982Z,935.13
2018-08-20T10:24:30.964Z,935.10
2018-08-20T10:25:30.944Z,935.12
2018-08-20T10:26:30.913Z,935.18
2018-08-20T10:27:30.894Z,935.13
2018-08-20T10:28:30.877Z,935.15
2018-08-20T10:29:30.856Z,935.17
2018-08-20T10:30:30.836Z,935.21
2018-08-20T10:31:30.816Z,935.17
2018-08-20T10:32:30.800Z,935.24
2018-08-20T10:33:30.776Z,935.24
2018-08-20T10:34:30.755Z,935.25
2018-08-20T10:35:30.728Z,935.24
2018-08-20T10:36:30.711Z,935.26
2018-08-20T10:37:30.708Z,935.26
2018-08-20T10:38:30.667Z,935.24
2018-08-20T10:39:30.647Z,935.28
2018-08-20T10:40:30.624Z,935.27
2018-08-20T10:41:30.609Z,935.27
2018-08-20T10:42:30.586Z,935.28
2018-08-20T10:43:30.570Z,935.27
2018-08-20T10:44:30.545Z,935.26
2018-08-20T10:45:30.532Z,935.25
2018-08-20T10:46:30.489Z,935.22
2018-08-20T10:47:30.467Z,935.22
2018-08-20T10:48:30.446Z,935.30
2018-08-20T10:49:30.434Z,935.34
2018-08-20T10:50:30.421Z,935.31
2018-08-20T10:51:30.382Z,935.34
2018-08-20T10:52:30.386Z,935.36
2018-08-20T10:53:30.344Z,935.31
2018-08-20T10:54:30.325Z,935.30
2018-08-20T10:55:30.302Z,935.00
2018-08-20T10:56:30.301Z,935.15
2018-08-20T10:57:30.280Z,935.10
2018-08-20T10:58:30.245Z,935.20
2018-08-20T10:59:30.237Z,935.24
2018-08-20T11:00:30.221Z,935.31
2018-08-20T11:01:30.204Z,935.24
2018-08-20T11:02:30.174Z,935.27
2018-08-20T11:03:30.165Z,935.27
2018-08-20T11:05:03.346Z,935.32
2018-08-20T11:05:30.118Z,935.41
2018-08-20T11:06:30.097Z,935.37
2018-08-20T11:07:30.077Z,935.46
2018-08-20T11:08:30.035Z,935.51
2018-08-20T11:09:30.015Z,935.54
2018-08-20T11:10:30.019Z,935.61
2018-08-20T11:11:29.991Z,935.57
2018-08-20T11:12:29.978Z,935.51
2018-08-20T11:13:29.961Z,935.49
2018-08-20T11:14:29.934Z,935.52
2018-08-20T11:15:29.921Z,935.52
2018-08-20T11:16:29.896Z,935.55
2018-08-20T11:17:29.875Z,935.57
2018-08-20T11:18:29.902Z,935.16
2018-08-20T11:19:29.850Z,935.17
2018-08-20T11:20:29.801Z,935.15
2018-08-20T11:21:29.786Z,935.17
2018-08-20T11:22:29.785Z,935.21
2018-08-20T11:23:29.764Z,935.23
2018-08-20T11:24:29.721Z,935.21
2018-08-20T11:25:29.725Z,935.24
2018-08-20T11:26:29.701Z,935.33
2018-08-20T11:27:29.709Z,935.31
2018-08-20T11:28:29.659Z,935.27
2018-08-20T11:29:29.646Z,935.28
2018-08-20T11:30:29.620Z,935.29
2018-08-20T11:31:29.596Z,935.75
2018-08-20T11:32:29.579Z,935.75
2018-08-20T11:33:29.543Z,935.81
2018-08-20T11:34:29.539Z,935.87
2018-08-20T11:35:29.520Z,935.92
2018-08-20T11:36:29.548Z,935.89
2018-08-20T11:37:29.484Z,935.87
2018-08-20T11:38:29.464Z,935.95
2018-08-20T11:39:29.442Z,935.94
2018-08-20T11:40:29.425Z,935.95
2018-08-20T11:41:29.404Z,935.98
2018-08-20T11:42:29.384Z,936.06
2018-08-20T11:43:29.366Z,936.05
2018-08-20T11:44:29.324Z,935.94
2018-08-20T11:45:29.328Z,935.91
2018-08-20T11:46:29.312Z,935.96
2018-08-20T11:47:29.286Z,935.96
2018-08-20T11:48:29.250Z,935.98
2018-08-20T11:49:29.248Z,935.97
2018-08-20T11:50:29.230Z,935.97
2018-08-20T11:51:29.216Z,936.01
2018-08-20T11:52:29.201Z,935.99
2018-08-20T11:53:29.177Z,935.95
2018-08-20T11:54:29.195Z,935.99
2018-08-20T11:55:29.137Z,935.99
2018-08-20T11:56:29.121Z,935.40
2018-08-20T11:57:29.103Z,935.44
2018-08-20T11:58:29.085Z,935.41
2018-08-20T11:59:29.046Z,935.92
2018-08-20T12:00:29.050Z,935.97
2018-08-20T12:01:29.008Z,935.98
2018-08-20T12:02:29.007Z,935.99
2018-08-20T12:03:28.976Z,936.03
2018-08-20T12:04:28.980Z,936.04
2018-08-20T12:05:29.036Z,936.01
2018-08-20T12:06:28.941Z,935.98
2018-08-20T12:07:29.075Z,935.98
2018-08-20T12:08:28.911Z,936.02
2018-08-20T12:09:28.884Z,935.56
2018-08-20T12:10:28.864Z,935.58
2018-08-20T12:11:28.853Z,935.56
2018-08-20T12:12:28.814Z,935.92
2018-08-20T12:13:28.819Z,936.04
2018-08-20T12:14:28.797Z,936.05
2018-08-20T12:15:28.761Z,936.05
2018-08-20T12:16:28.774Z,936.13
2018-08-20T12:17:28.752Z,936.14
2018-08-20T12:18:28.731Z,936.12
2018-08-20T12:19:28.721Z,936.16
2018-08-20T12:20:28.699Z,936.16
2018-08-20T12:21:28.684Z,936.13
2018-08-20T12:22:28.668Z,936.20
2018-08-20T12:23:28.649Z,936.20
2018-08-20T12:24:28.628Z,936.06
2018-08-20T12:25:28.617Z,935.96
2018-08-20T12:26:28.596Z,935.93
2018-08-20T12:27:28.561Z,935.91
2018-08-20T12:28:28.569Z,935.91
2018-08-20T12:29:28.551Z,935.95